createdAt,value
2023-02-15T00:00:45.265Z,98.33
2023-02-15T00:05:45.205Z,98.22
2023-02-15T00:10:45.132Z,98.12
2023-02-15T00:15:45.114Z,97.33
2023-02-15T00:20:45.003Z,96.50
2023-02-15T00:25:44.932Z,95.02
2023-02-15T00:30:44.979Z,95.02
2023-02-15T00:35:44.800Z,95.27
2023-02-15T00:40:44.746Z,96.21
2023-02-15T00:45:44.676Z,96.57
2023-02-15T00:50:44.613Z,96.99
2023-02-15T00:55:44.550Z,97.30
2023-02-15T01:00:44.483Z,97.83
2023-02-15T01:05:44.422Z,98.24
2023-02-15T01:10:44.354Z,98.24
2023-02-15T01:15:44.358Z,98.14
2023-02-15T01:20:44.227Z,98.14
2023-02-15T01:25:44.166Z,98.24
2023-02-15T01:30:44.239Z,98.04
2023-02-15T01:35:44.036Z,97.72
2023-02-15T01:40:43.971Z,97.83
2023-02-15T01:45:43.908Z,97.93
2023-02-15T01:50:43.845Z,97.93
2023-02-15T01:55:43.775Z,98.04
2023-02-15T02:00:43.712Z,97.87
2023-02-15T02:05:43.648Z,98.08
2023-02-15T02:10:43.575Z,98.08
2023-02-15T02:15:43.563Z,97.87
2023-02-15T02:20:43.446Z,97.87
2023-02-15T02:25:43.383Z,97.97
2023-02-15T02:30:43.377Z,98.18
2023-02-15T02:35:43.244Z,98.50
2023-02-15T02:40:43.199Z,98.50
2023-02-15T02:45:43.115Z,98.29
2023-02-15T02:50:43.064Z,98.18
2023-02-15T02:55:43.003Z,97.29
2023-02-15T03:00:42.928Z,96.60
2023-02-15T03:05:42.867Z,97.38
2023-02-15T03:10:42.805Z,98.07
2023-02-15T03:15:42.825Z,98.11
2023-02-15T03:20:42.677Z,97.90
2023-02-15T03:25:42.620Z,98.11
2023-02-15T03:30:42.548Z,98.63
2023-02-15T03:35:42.475Z,99.05
2023-02-15T03:40:42.426Z,99.63
2023-02-15T03:45:42.347Z,99.99
2023-02-15T03:50:42.290Z,99.99
2023-02-15T03:55:42.218Z,99.99
2023-02-15T04:00:42.160Z,99.99
2023-02-15T04:05:42.082Z,99.99
2023-02-15T04:10:42.026Z,99.99
2023-02-15T04:15:41.950Z,99.89
2023-02-15T04:20:41.897Z,99.73
2023-02-15T04:25:41.817Z,99.78
2023-02-15T04:30:41.757Z,99.73
2023-02-15T04:35:41.685Z,99.51
2023-02-15T04:40:41.631Z,99.73
2023-02-15T04:45:41.635Z,99.89
2023-02-15T04:50:41.507Z,99.78
2023-02-15T04:55:41.429Z,99.73
2023-02-15T05:00:41.362Z,99.83
2023-02-15T05:05:41.300Z,99.83
2023-02-15T05:10:41.231Z,99.73
2023-02-15T05:15:42.282Z,99.73
2023-02-15T05:20:41.098Z,99.41
2023-02-15T05:25:41.035Z,99.51
2023-02-15T05:30:41.243Z,99.83
2023-02-15T05:35:40.896Z,99.99
2023-02-15T05:40:40.841Z,99.99
2023-02-15T05:45:40.809Z,99.99
2023-02-15T05:50:40.708Z,99.99
2023-02-15T05:55:40.634Z,99.99
2023-02-15T06:00:40.577Z,99.99
2023-02-15T06:05:40.508Z,99.99
2023-02-15T06:10:40.449Z,99.99
2023-02-15T06:15:40.435Z,99.99
2023-02-15T06:20:40.324Z,99.99
2023-02-15T06:25:40.258Z,99.99
2023-02-15T06:30:40.290Z,99.99
2023-02-15T06:35:40.157Z,99.99
2023-02-15T06:40:40.224Z,99.99
2023-02-15T06:45:40.003Z,99.99
2023-02-15T06:50:39.938Z,99.99
2023-02-15T06:55:39.855Z,99.99
2023-02-15T07:00:39.797Z,99.99
2023-02-15T07:05:39.721Z,99.99
2023-02-15T07:10:39.664Z,96.64
2023-02-15T07:15:39.640Z,90.95
2023-02-15T07:20:39.538Z,87.26
2023-02-15T07:25:39.464Z,82.95
2023-02-15T07:30:39.538Z,80.67
2023-02-15T07:35:39.334Z,77.83
2023-02-15T07:40:39.282Z,74.08
2023-02-15T07:45:39.206Z,70.86
2023-02-15T07:50:39.148Z,68.71
2023-02-15T07:55:39.078Z,66.25
2023-02-15T08:00:39.007Z,63.80
2023-02-15T08:05:38.949Z,61.29
2023-02-15T08:10:38.878Z,59.85
2023-02-15T08:15:38.805Z,57.29
2023-02-15T08:20:38.745Z,55.17
2023-02-15T08:25:38.676Z,53.90
2023-02-15T08:30:38.713Z,53.11
2023-02-15T08:35:38.542Z,50.88
2023-02-15T08:40:38.492Z,49.29
2023-02-15T08:45:38.450Z,48.18
2023-02-15T08:50:38.348Z,50.48
2023-02-15T08:55:38.289Z,47.38
2023-02-15T09:00:38.216Z,46.83
2023-02-15T09:05:38.150Z,46.61
2023-02-15T09:10:38.085Z,44.99
2023-02-15T09:15:38.015Z,45.94
2023-02-15T09:20:37.949Z,46.75
2023-02-15T09:25:37.880Z,46.96
2023-02-15T09:30:37.994Z,46.53
2023-02-15T09:35:37.735Z,46.75
2023-02-15T09:40:37.685Z,47.36
2023-02-15T09:45:37.662Z,46.25
2023-02-15T09:50:37.554Z,45.48
2023-02-15T09:55:37.468Z,44.93
2023-02-15T10:00:37.425Z,44.31
2023-02-15T10:05:37.341Z,43.88
2023-02-15T10:10:37.284Z,43.46
2023-02-15T10:15:37.212Z,43.78
2023-02-15T10:20:37.162Z,44.61
2023-02-15T10:25:37.097Z,44.56
2023-02-15T10:30:37.186Z,43.49
2023-02-15T10:35:36.952Z,43.70
2023-02-15T10:40:36.897Z,43.60
2023-02-15T10:45:36.828Z,43.71
2023-02-15T10:50:36.779Z,43.84
2023-02-15T10:55:36.700Z,44.04
2023-02-15T11:00:36.651Z,43.43
2023-02-15T11:05:36.572Z,43.35
2023-02-15T11:10:36.528Z,44.12
2023-02-15T11:15:36.568Z,45.30
2023-02-15T11:20:36.391Z,46.53
2023-02-15T11:25:36.307Z,47.18
2023-02-15T11:30:36.297Z,48.21
2023-02-15T11:35:36.185Z,50.43
2023-02-15T11:40:36.134Z,52.17
2023-02-15T11:45:36.039Z,53.54
2023-02-15T11:50:35.982Z,53.49
2023-02-15T11:55:35.931Z,53.24
2023-02-15T12:00:35.847Z,54.81
2023-02-15T12:05:35.771Z,56.64
2023-02-15T12:10:35.715Z,56.46
2023-02-15T12:15:36.044Z,57.81
2023-02-15T12:20:35.580Z,58.78
2023-02-15T12:25:35.508Z,59.22
2023-02-15T12:30:35.521Z,59.06
2023-02-15T12:35:35.570Z,61.03
2023-02-15T12:40:35.326Z,61.34
2023-02-15T12:45:35.241Z,67.65
2023-02-15T12:50:35.419Z,63.30
2023-02-15T12:55:35.115Z,63.84
2023-02-15T13:00:35.074Z,63.87
2023-02-15T13:05:34.976Z,64.31
2023-02-15T13:10:34.928Z,64.41
2023-02-15T13:15:34.844Z,64.55
2023-02-15T13:20:34.805Z,64.23
2023-02-15T13:25:34.709Z,62.27
2023-02-15T13:30:34.728Z,63.29
2023-02-15T13:35:34.577Z,64.61
2023-02-15T13:40:34.518Z,65.23
2023-02-15T13:45:34.540Z,64.41
2023-02-15T13:50:34.389Z,63.29
2023-02-15T13:55:34.312Z,63.90
2023-02-15T14:00:34.253Z,64.21
2023-02-15T14:05:34.182Z,64.21
2023-02-15T14:10:34.947Z,66.14
2023-02-15T14:15:34.043Z,66.35
2023-02-15T14:20:33.993Z,66.79
2023-02-15T14:25:34.574Z,66.90
2023-02-15T14:30:34.005Z,66.21
2023-02-15T14:35:33.798Z,65.49
2023-02-15T14:40:33.722Z,65.52
2023-02-15T14:45:35.020Z,65.73
2023-02-15T14:50:33.584Z,65.22
2023-02-15T14:55:33.524Z,64.94
2023-02-15T15:00:33.450Z,66.04
2023-02-15T15:05:33.389Z,67.98
2023-02-15T15:10:33.320Z,69.11
2023-02-15T15:15:33.367Z,69.34
2023-02-15T15:20:33.186Z,69.65
2023-02-15T15:25:33.122Z,70.47
2023-02-15T15:30:33.148Z,71.62
2023-02-15T15:35:32.972Z,73.36
2023-02-15T15:40:32.917Z,73.70
2023-02-15T15:45:32.834Z,74.11
2023-02-15T15:50:32.784Z,75.07
2023-02-15T15:55:32.701Z,75.58
2023-02-15T16:00:32.662Z,76.23
2023-02-15T16:05:32.592Z,77.80
2023-02-15T16:10:32.512Z,77.50
2023-02-15T16:15:32.463Z,77.33
2023-02-15T16:20:32.386Z,77.98
2023-02-15T16:25:32.334Z,79.66
2023-02-15T16:30:32.311Z,80.52
2023-02-15T16:35:32.180Z,81.14
2023-02-15T16:40:32.107Z,81.48
2023-02-15T16:45:32.045Z,82.69
2023-02-15T16:50:31.975Z,83.65
2023-02-15T16:55:31.903Z,84.61
2023-02-15T17:00:31.925Z,84.51
2023-02-15T17:05:31.772Z,84.51
2023-02-15T17:10:31.720Z,84.93
2023-02-15T17:15:31.642Z,85.27
2023-02-15T17:20:34.254Z,85.27
2023-02-15T17:25:31.506Z,85.17
2023-02-15T17:30:31.534Z,85.41
2023-02-15T17:35:31.382Z,85.77
2023-02-15T17:40:31.302Z,85.97
2023-02-15T17:45:31.368Z,86.70
2023-02-15T17:50:31.176Z,86.84
2023-02-15T17:55:31.116Z,87.04
2023-02-15T18:00:31.043Z,87.39
2023-02-15T18:05:30.986Z,87.70
2023-02-15T18:10:30.911Z,88.15
2023-02-15T18:15:30.868Z,88.57
2023-02-15T18:20:30.783Z,88.88
2023-02-15T18:25:30.789Z,89.50
2023-02-15T18:30:30.725Z,89.60
2023-02-15T18:35:30.594Z,89.81
2023-02-15T18:40:30.520Z,89.08
2023-02-15T18:45:30.527Z,88.88
2023-02-15T18:50:30.378Z,89.08
2023-02-15T18:55:30.314Z,88.98
2023-02-15T19:00:30.242Z,89.70
2023-02-15T19:05:30.227Z,89.60
2023-02-15T19:10:30.114Z,89.19
2023-02-15T19:15:30.060Z,89.12
2023-02-15T19:20:29.986Z,89.12
2023-02-15T19:25:29.939Z,89.78
2023-02-15T19:30:30.087Z,89.99
2023-02-15T19:35:29.804Z,90.14
2023-02-15T19:40:29.724Z,90.03
2023-02-15T19:45:29.680Z,90.24
2023-02-15T19:50:29.585Z,90.80
2023-02-15T19:55:29.548Z,91.11
2023-02-15T20:00:29.466Z,91.52
2023-02-15T20:05:29.401Z,91.67
2023-02-15T20:10:29.324Z,91.67
2023-02-15T20:15:29.335Z,91.57
2023-02-15T20:20:29.186Z,91.46
2023-02-15T20:25:29.124Z,90.12
2023-02-15T20:30:29.127Z,88.98
2023-02-15T20:35:28.978Z,87.98
2023-02-15T20:40:28.918Z,86.09
2023-02-15T20:45:28.853Z,84.53
2023-02-15T20:50:28.769Z,83.81
2023-02-15T20:55:28.712Z,83.81
2023-02-15T21:00:28.639Z,83.33
2023-02-15T21:05:28.574Z,82.60
2023-02-15T21:10:28.498Z,82.50
2023-02-15T21:15:28.446Z,82.70
2023-02-15T21:20:28.366Z,82.81
2023-02-15T21:25:28.307Z,82.95
2023-02-15T21:30:28.366Z,82.85
2023-02-15T21:35:28.176Z,83.26
2023-02-15T21:40:28.115Z,83.67
2023-02-15T21:45:28.040Z,84.85
2023-02-15T21:50:27.991Z,85.89
2023-02-15T21:55:27.905Z,86.45
2023-02-15T22:00:27.873Z,87.11
2023-02-15T22:05:27.783Z,87.63
2023-02-15T22:10:27.700Z,88.56
2023-02-15T22:15:27.644Z,88.67
2023-02-15T22:20:27.565Z,87.94
2023-02-15T22:25:27.504Z,87.67
2023-02-15T22:30:27.543Z,87.67
2023-02-15T22:35:27.384Z,88.23
2023-02-15T22:40:27.298Z,88.33
2023-02-15T22:45:27.274Z,88.54
2023-02-15T22:50:27.166Z,89.00
2023-02-15T22:55:27.108Z,89.00
2023-02-15T23:00:27.039Z,89.10
2023-02-15T23:05:27.030Z,89.31
2023-02-15T23:10:26.903Z,89.72
2023-02-15T23:15:26.850Z,89.72
2023-02-15T23:20:26.776Z,89.45
2023-02-15T23:25:26.715Z,89.35
2023-02-15T23:30:26.694Z,89.35
2023-02-15T23:35:26.578Z,89.25
2023-02-15T23:40:26.514Z,89.25
2023-02-15T23:45:26.452Z,89.35
2023-02-15T23:50:26.395Z,89.25
2023-02-15T23:55:26.319Z,89.25
